sensor_id;sensor_type;location;lat;lon;timestamp;temperature;humidity
20284;DHT22;10301;50.832;4.080;2023-08-01T00:02:11;17.80;99.90
20284;DHT22;10301;50.832;4.080;2023-08-01T00:04:37;17.80;99.90
20284;DHT22;10301;50.832;4.080;2023-08-01T00:07:02;17.80;99.90
20284;DHT22;10301;50.832;4.080;2023-08-01T00:09:28;17.80;99.90
20284;DHT22;10301;50.832;4.080;2023-08-01T00:11:54;17.60;99.90
20284;DHT22;10301;50.832;4.080;2023-08-01T00:14:20;17.50;99.90
20284;DHT22;10301;50.832;4.080;2023-08-01T00:16:49;17.40;99.90
20284;DHT22;10301;50.832;4.080;2023-08-01T00:19:15;17.40;99.90
20284;DHT22;10301;50.832;4.080;2023-08-01T00:21:41;17.40;99.90
20284;DHT22;10301;50.832;4.080;2023-08-01T00:24:06;17.40;99.90
20284;DHT22;10301;50.832;4.080;2023-08-01T00:26:33;17.40;99.90
20284;DHT22;10301;50.832;4.080;2023-08-01T00:28:59;17.50;99.90
20284;DHT22;10301;50.832;4.080;2023-08-01T00:31:25;17.50;99.90
20284;DHT22;10301;50.832;4.080;2023-08-01T00:33:50;17.40;99.90
20284;DHT22;10301;50.832;4.080;2023-08-01T00:36:16;17.30;99.90
20284;DHT22;10301;50.832;4.080;2023-08-01T00:38:41;17.50;99.90
20284;DHT22;10301;50.832;4.080;2023-08-01T00:41:09;17.50;99.90
20284;DHT22;10301;50.832;4.080;2023-08-01T00:43:35;17.40;99.90
20284;DHT22;10301;50.832;4.080;2023-08-01T00:46:03;17.40;99.90
20284;DHT22;10301;50.832;4.080;2023-08-01T00:48:29;17.40;99.90
20284;DHT22;10301;50.832;4.080;2023-08-01T00:50:57;17.30;99.90
20284;DHT22;10301;50.832;4.080;2023-08-01T00:53:23;17.50;99.90
20284;DHT22;10301;50.832;4.080;2023-08-01T00:55:51;17.40;99.90
20284;DHT22;10301;50.832;4.080;2023-08-01T00:58:18;17.30;99.90
20284;DHT22;10301;50.832;4.080;2023-08-01T01:00:45;17.30;99.90
20284;DHT22;10301;50.832;4.080;2023-08-01T01:03:11;17.40;99.90
20284;DHT22;10301;50.832;4.080;2023-08-01T01:05:38;17.10;99.90
20284;DHT22;10301;50.832;4.080;2023-08-01T01:08:06;17.10;99.90
20284;DHT22;10301;50.832;4.080;2023-08-01T01:10:32;17.20;99.90
20284;DHT22;10301;50.832;4.080;2023-08-01T01:12:58;17.20;99.90
20284;DHT22;10301;50.832;4.080;2023-08-01T01:15:23;17.20;99.90
20284;DHT22;10301;50.832;4.080;2023-08-01T01:17:49;17.10;99.90
20284;DHT22;10301;50.832;4.080;2023-08-01T01:20:18;17.00;99.90
20284;DHT22;10301;50.832;4.080;2023-08-01T01:22:44;17.00;99.90
20284;DHT22;10301;50.832;4.080;2023-08-01T01:25:10;17.10;99.90
20284;DHT22;10301;50.832;4.080;2023-08-01T01:27:37;17.10;99.90
20284;DHT22;10301;50.832;4.080;2023-08-01T01:30:03;17.10;99.90
20284;DHT22;10301;50.832;4.080;2023-08-01T01:32:30;17.30;99.90
20284;DHT22;10301;50.832;4.080;2023-08-01T01:34:56;17.30;99.90
20284;DHT22;10301;50.832;4.080;2023-08-01T01:37:21;17.20;99.90
20284;DHT22;10301;50.832;4.080;2023-08-01T01:39:47;17.10;99.90
20284;DHT22;10301;50.832;4.080;2023-08-01T01:42:13;17.20;99.90
20284;DHT22;10301;50.832;4.080;2023-08-01T01:44:39;17.10;99.90
20284;DHT22;10301;50.832;4.080;2023-08-01T01:47:05;17.10;99.90
20284;DHT22;10301;50.832;4.080;2023-08-01T01:49:31;17.00;99.90
20284;DHT22;10301;50.832;4.080;2023-08-01T01:51:56;17.00;99.90
20284;DHT22;10301;50.832;4.080;2023-08-01T01:54:22;17.20;99.90
20284;DHT22;10301;50.832;4.080;2023-08-01T01:56:47;17.10;99.90
20284;DHT22;10301;50.832;4.080;2023-08-01T01:59:13;17.20;99.90
20284;DHT22;10301;50.832;4.080;2023-08-01T02:01:39;17.20;99.90
20284;DHT22;10301;50.832;4.080;2023-08-01T02:04:04;17.30;99.90
20284;DHT22;10301;50.832;4.080;2023-08-01T02:06:30;17.30;99.90
20284;DHT22;10301;50.832;4.080;2023-08-01T02:08:56;17.10;99.90
20284;DHT22;10301;50.832;4.080;2023-08-01T02:11:21;17.30;99.90
20284;DHT22;10301;50.832;4.080;2023-08-01T02:13:47;17.30;99.90
20284;DHT22;10301;50.832;4.080;2023-08-01T02:16:12;17.20;99.90
20284;DHT22;10301;50.832;4.080;2023-08-01T02:18:38;17.20;99.90
20284;DHT22;10301;50.832;4.080;2023-08-01T02:21:04;17.20;99.90
20284;DHT22;10301;50.832;4.080;2023-08-01T02:23:29;17.00;99.90
20284;DHT22;10301;50.832;4.080;2023-08-01T02:25:55;17.10;99.90
20284;DHT22;10301;50.832;4.080;2023-08-01T02:28:21;17.10;99.90
20284;DHT22;10301;50.832;4.080;2023-08-01T02:30:46;17.10;99.90
20284;DHT22;10301;50.832;4.080;2023-08-01T02:33:12;17.10;99.90
20284;DHT22;10301;50.832;4.080;2023-08-01T02:35:38;17.10;99.90
20284;DHT22;10301;50.832;4.080;2023-08-01T02:38:03;17.30;99.90
20284;DHT22;10301;50.832;4.080;2023-08-01T02:40:29;17.20;99.90
20284;DHT22;10301;50.832;4.080;2023-08-01T02:42:55;17.00;99.90
20284;DHT22;10301;50.832;4.080;2023-08-01T02:45:20;16.90;99.90
20284;DHT22;10301;50.832;4.080;2023-08-01T02:47:46;16.90;99.90
20284;DHT22;10301;50.832;4.080;2023-08-01T02:50:12;17.00;99.90
20284;DHT22;10301;50.832;4.080;2023-08-01T02:52:37;17.10;99.90
20284;DHT22;10301;50.832;4.080;2023-08-01T02:55:03;17.00;99.90
20284;DHT22;10301;50.832;4.080;2023-08-01T02:57:29;17.00;99.90
20284;DHT22;10301;50.832;4.080;2023-08-01T02:59:54;16.80;99.90
20284;DHT22;10301;50.832;4.080;2023-08-01T03:02:20;17.00;99.90
20284;DHT22;10301;50.832;4.080;2023-08-01T03:04:46;17.10;99.90
20284;DHT22;10301;50.832;4.080;2023-08-01T03:07:11;17.10;99.90
20284;DHT22;10301;50.832;4.080;2023-08-01T03:09:37;17.10;99.90
20284;DHT22;10301;50.832;4.080;2023-08-01T03:12:03;17.10;99.90
20284;DHT22;10301;50.832;4.080;2023-08-01T03:14:28;17.20;99.90
20284;DHT22;10301;50.832;4.080;2023-08-01T03:16:54;17.20;99.90
20284;DHT22;10301;50.832;4.080;2023-08-01T03:19:20;17.30;99.90
20284;DHT22;10301;50.832;4.080;2023-08-01T03:21:45;17.10;99.90
20284;DHT22;10301;50.832;4.080;2023-08-01T03:24:12;17.10;99.90
20284;DHT22;10301;50.832;4.080;2023-08-01T03:26:37;16.80;99.90
20284;DHT22;10301;50.832;4.080;2023-08-01T03:29:03;16.90;99.90
20284;DHT22;10301;50.832;4.080;2023-08-01T03:31:31;16.90;99.90
20284;DHT22;10301;50.832;4.080;2023-08-01T03:33:56;16.80;99.90
20284;DHT22;10301;50.832;4.080;2023-08-01T03:36:24;16.90;99.90
20284;DHT22;10301;50.832;4.080;2023-08-01T03:38:50;16.80;99.90
20284;DHT22;10301;50.832;4.080;2023-08-01T03:41:15;16.90;99.90
20284;DHT22;10301;50.832;4.080;2023-08-01T03:43:41;16.80;99.90
20284;DHT22;10301;50.832;4.080;2023-08-01T03:46:07;17.00;99.90
20284;DHT22;10301;50.832;4.080;2023-08-01T03:48:33;17.00;99.90
20284;DHT22;10301;50.832;4.080;2023-08-01T03:50:58;16.90;99.90
20284;DHT22;10301;50.832;4.080;2023-08-01T03:53:24;16.80;99.90
20284;DHT22;10301;50.832;4.080;2023-08-01T03:55:50;16.90;99.90
20284;DHT22;10301;50.832;4.080;2023-08-01T03:58:15;16.80;99.90
20284;DHT22;10301;50.832;4.080;2023-08-01T04:00:41;16.90;99.90
20284;DHT22;10301;50.832;4.080;2023-08-01T04:03:06;16.90;99.90
20284;DHT22;10301;50.832;4.080;2023-08-01T04:05:32;16.90;99.90
20284;DHT22;10301;50.832;4.080;2023-08-01T04:07:59;16.90;99.90
20284;DHT22;10301;50.832;4.080;2023-08-01T04:10:24;16.80;99.90
20284;DHT22;10301;50.832;4.080;2023-08-01T04:12:50;16.70;99.90
20284;DHT22;10301;50.832;4.080;2023-08-01T04:15:16;16.70;99.90
20284;DHT22;10301;50.832;4.080;2023-08-01T04:17:42;16.80;99.90
20284;DHT22;10301;50.832;4.080;2023-08-01T04:20:07;16.80;99.90
20284;DHT22;10301;50.832;4.080;2023-08-01T04:22:33;16.80;99.90
20284;DHT22;10301;50.832;4.080;2023-08-01T04:25:00;16.80;99.90
20284;DHT22;10301;50.832;4.080;2023-08-01T04:27:26;16.90;99.90
20284;DHT22;10301;50.832;4.080;2023-08-01T04:29:52;16.80;99.90
20284;DHT22;10301;50.832;4.080;2023-08-01T04:32:18;16.80;99.90
20284;DHT22;10301;50.832;4.080;2023-08-01T04:34:44;16.90;99.90
20284;DHT22;10301;50.832;4.080;2023-08-01T04:37:09;16.90;99.90
20284;DHT22;10301;50.832;4.080;2023-08-01T04:39:36;16.80;99.90
20284;DHT22;10301;50.832;4.080;2023-08-01T04:42:02;16.70;99.90
20284;DHT22;10301;50.832;4.080;2023-08-01T04:44:27;16.70;99.90
20284;DHT22;10301;50.832;4.080;2023-08-01T04:46:54;16.80;99.90
20284;DHT22;10301;50.832;4.080;2023-08-01T04:49:20;16.90;99.90
20284;DHT22;10301;50.832;4.080;2023-08-01T04:51:45;17.00;99.90
20284;DHT22;10301;50.832;4.080;2023-08-01T04:54:11;17.10;99.90
20284;DHT22;10301;50.832;4.080;2023-08-01T04:56:36;17.10;99.90
20284;DHT22;10301;50.832;4.080;2023-08-01T04:59:02;17.00;99.90
20284;DHT22;10301;50.832;4.080;2023-08-01T05:01:28;17.10;99.90
20284;DHT22;10301;50.832;4.080;2023-08-01T05:03:53;16.90;99.90
20284;DHT22;10301;50.832;4.080;2023-08-01T05:06:19;16.80;99.90
20284;DHT22;10301;50.832;4.080;2023-08-01T05:08:45;17.00;99.90
20284;DHT22;10301;50.832;4.080;2023-08-01T05:11:10;17.10;99.90
20284;DHT22;10301;50.832;4.080;2023-08-01T05:13:36;17.10;99.90
20284;DHT22;10301;50.832;4.080;2023-08-01T05:16:01;17.30;99.90
20284;DHT22;10301;50.832;4.080;2023-08-01T05:18:28;17.50;99.90
20284;DHT22;10301;50.832;4.080;2023-08-01T05:20:54;17.50;99.90
20284;DHT22;10301;50.832;4.080;2023-08-01T05:23:19;17.60;99.90
20284;DHT22;10301;50.832;4.080;2023-08-01T05:25:45;17.50;99.90
20284;DHT22;10301;50.832;4.080;2023-08-01T05:28:11;17.40;99.90
20284;DHT22;10301;50.832;4.080;2023-08-01T05:30:37;17.40;99.90
20284;DHT22;10301;50.832;4.080;2023-08-01T05:33:03;17.70;99.90
20284;DHT22;10301;50.832;4.080;2023-08-01T05:35:29;17.80;99.90
20284;DHT22;10301;50.832;4.080;2023-08-01T05:37:54;17.80;99.90
20284;DHT22;10301;50.832;4.080;2023-08-01T05:40:20;17.60;99.90
20284;DHT22;10301;50.832;4.080;2023-08-01T05:42:45;17.50;99.90
20284;DHT22;10301;50.832;4.080;2023-08-01T05:45:11;17.50;99.90
20284;DHT22;10301;50.832;4.080;2023-08-01T05:47:37;17.60;99.90
20284;DHT22;10301;50.832;4.080;2023-08-01T05:50:03;17.40;99.90
20284;DHT22;10301;50.832;4.080;2023-08-01T05:52:30;17.60;99.90
20284;DHT22;10301;50.832;4.080;2023-08-01T05:54:55;17.70;99.90
20284;DHT22;10301;50.832;4.080;2023-08-01T05:57:21;17.80;99.90
20284;DHT22;10301;50.832;4.080;2023-08-01T05:59:47;17.90;99.90
20284;DHT22;10301;50.832;4.080;2023-08-01T06:02:12;18.10;99.90
20284;DHT22;10301;50.832;4.080;2023-08-01T06:04:38;17.90;99.90
20284;DHT22;10301;50.832;4.080;2023-08-01T06:07:04;17.60;99.90
20284;DHT22;10301;50.832;4.080;2023-08-01T06:09:30;17.40;99.90
20284;DHT22;10301;50.832;4.080;2023-08-01T06:11:56;17.50;99.90
20284;DHT22;10301;50.832;4.080;2023-08-01T06:14:22;17.40;99.90
20284;DHT22;10301;50.832;4.080;2023-08-01T06:16:47;17.60;99.90
20284;DHT22;10301;50.832;4.080;2023-08-01T06:19:13;17.70;99.90
20284;DHT22;10301;50.832;4.080;2023-08-01T06:21:38;17.90;99.90
20284;DHT22;10301;50.832;4.080;2023-08-01T06:24:04;18.00;99.90
20284;DHT22;10301;50.832;4.080;2023-08-01T06:26:30;17.80;99.90
20284;DHT22;10301;50.832;4.080;2023-08-01T06:28:55;17.60;99.90
20284;DHT22;10301;50.832;4.080;2023-08-01T06:31:21;17.50;99.90
20284;DHT22;10301;50.832;4.080;2023-08-01T06:33:47;17.40;99.90
20284;DHT22;10301;50.832;4.080;2023-08-01T06:36:12;17.60;99.90
20284;DHT22;10301;50.832;4.080;2023-08-01T06:38:39;17.60;99.90
20284;DHT22;10301;50.832;4.080;2023-08-01T06:41:04;18.00;99.90
20284;DHT22;10301;50.832;4.080;2023-08-01T06:43:30;18.00;99.90
20284;DHT22;10301;50.832;4.080;2023-08-01T06:45:56;18.30;99.90
20284;DHT22;10301;50.832;4.080;2023-08-01T06:48:21;18.40;98.60
20284;DHT22;10301;50.832;4.080;2023-08-01T06:50:47;18.40;99.00
20284;DHT22;10301;50.832;4.080;2023-08-01T06:53:12;18.60;99.70
20284;DHT22;10301;50.832;4.080;2023-08-01T06:55:38;18.80;96.60
20284;DHT22;10301;50.832;4.080;2023-08-01T06:58:05;18.60;98.80
20284;DHT22;10301;50.832;4.080;2023-08-01T07:00:31;18.80;98.50
20284;DHT22;10301;50.832;4.080;2023-08-01T07:02:57;19.20;91.10
20284;DHT22;10301;50.832;4.080;2023-08-01T07:05:23;19.60;84.20
20284;DHT22;10301;50.832;4.080;2023-08-01T07:07:49;19.80;83.80
20284;DHT22;10301;50.832;4.080;2023-08-01T07:10:14;19.70;79.90
20284;DHT22;10301;50.832;4.080;2023-08-01T07:12:40;19.60;80.50
20284;DHT22;10301;50.832;4.080;2023-08-01T07:15:06;19.60;81.20
20284;DHT22;10301;50.832;4.080;2023-08-01T07:17:32;19.40;81.70
20284;DHT22;10301;50.832;4.080;2023-08-01T07:19:57;19.10;81.70
20284;DHT22;10301;50.832;4.080;2023-08-01T07:22:23;19.00;88.80
20284;DHT22;10301;50.832;4.080;2023-08-01T07:24:53;19.00;86.60
20284;DHT22;10301;50.832;4.080;2023-08-01T07:27:19;18.70;91.00
20284;DHT22;10301;50.832;4.080;2023-08-01T07:29:45;18.70;94.40
20284;DHT22;10301;50.832;4.080;2023-08-01T07:32:11;18.90;93.70
20284;DHT22;10301;50.832;4.080;2023-08-01T07:34:36;19.00;91.80
20284;DHT22;10301;50.832;4.080;2023-08-01T07:37:02;19.10;84.20
20284;DHT22;10301;50.832;4.080;2023-08-01T07:39:28;19.20;83.80
20284;DHT22;10301;50.832;4.080;2023-08-01T07:41:55;19.10;86.10
20284;DHT22;10301;50.832;4.080;2023-08-01T07:44:21;19.20;82.50
20284;DHT22;10301;50.832;4.080;2023-08-01T07:46:47;19.10;86.80
20284;DHT22;10301;50.832;4.080;2023-08-01T07:49:13;19.30;74.60
20284;DHT22;10301;50.832;4.080;2023-08-01T07:51:38;19.60;79.20
20284;DHT22;10301;50.832;4.080;2023-08-01T07:54:04;19.70;71.60
20284;DHT22;10301;50.832;4.080;2023-08-01T07:56:30;19.60;67.50
20284;DHT22;10301;50.832;4.080;2023-08-01T07:58:55;20.00;55.30
20284;DHT22;10301;50.832;4.080;2023-08-01T08:01:21;20.20;48.50
20284;DHT22;10301;50.832;4.080;2023-08-01T08:03:47;20.10;55.90
20284;DHT22;10301;50.832;4.080;2023-08-01T08:06:12;20.00;50.80
20284;DHT22;10301;50.832;4.080;2023-08-01T08:08:38;20.40;49.90
20284;DHT22;10301;50.832;4.080;2023-08-01T08:11:04;20.40;51.90
20284;DHT22;10301;50.832;4.080;2023-08-01T08:13:29;20.60;42.60
20284;DHT22;10301;50.832;4.080;2023-08-01T08:15:56;20.80;38.80
20284;DHT22;10301;50.832;4.080;2023-08-01T08:18:25;20.80;34.70
20284;DHT22;10301;50.832;4.080;2023-08-01T08:20:51;20.50;32.60
20284;DHT22;10301;50.832;4.080;2023-08-01T08:23:16;20.30;48.90
20284;DHT22;10301;50.832;4.080;2023-08-01T08:25:43;20.70;49.10
20284;DHT22;10301;50.832;4.080;2023-08-01T08:28:13;20.90;35.70
20284;DHT22;10301;50.832;4.080;2023-08-01T08:30:39;21.30;20.50
20284;DHT22;10301;50.832;4.080;2023-08-01T08:33:04;21.50;15.10
20284;DHT22;10301;50.832;4.080;2023-08-01T08:35:35;21.10;21.60
20284;DHT22;10301;50.832;4.080;2023-08-01T08:38:02;21.00;24.90
20284;DHT22;10301;50.832;4.080;2023-08-01T08:40:31;21.40;19.40
20284;DHT22;10301;50.832;4.080;2023-08-01T08:43:01;21.40;19.20
20284;DHT22;10301;50.832;4.080;2023-08-01T08:45:29;21.20;31.60
20284;DHT22;10301;50.832;4.080;2023-08-01T08:47:59;21.10;39.70
20284;DHT22;10301;50.832;4.080;2023-08-01T08:50:26;21.00;42.40
20284;DHT22;10301;50.832;4.080;2023-08-01T08:52:52;21.00;42.40
20284;DHT22;10301;50.832;4.080;2023-08-01T08:55:19;21.50;23.50
20284;DHT22;10301;50.832;4.080;2023-08-01T08:57:49;21.70;1.00
20284;DHT22;10301;50.832;4.080;2023-08-01T09:00:17;21.90;1.00
20284;DHT22;10301;50.832;4.080;2023-08-01T09:02:42;21.90;1.00
20284;DHT22;10301;50.832;4.080;2023-08-01T09:05:08;21.90;1.00
20284;DHT22;10301;50.832;4.080;2023-08-01T09:07:39;21.90;1.00
20284;DHT22;10301;50.832;4.080;2023-08-01T09:10:07;21.70;1.00
20284;DHT22;10301;50.832;4.080;2023-08-01T09:12:36;21.80;1.00
20284;DHT22;10301;50.832;4.080;2023-08-01T09:15:02;21.90;1.00
20284;DHT22;10301;50.832;4.080;2023-08-01T09:17:28;21.80;1.00
20284;DHT22;10301;50.832;4.080;2023-08-01T09:20:06;21.70;1.00
20284;DHT22;10301;50.832;4.080;2023-08-01T09:22:43;21.50;1.00
20284;DHT22;10301;50.832;4.080;2023-08-01T09:25:09;21.60;1.00
20284;DHT22;10301;50.832;4.080;2023-08-01T09:27:35;21.70;1.00
20284;DHT22;10301;50.832;4.080;2023-08-01T09:30:11;21.50;1.00
20284;DHT22;10301;50.832;4.080;2023-08-01T09:32:39;21.60;1.00
20284;DHT22;10301;50.832;4.080;2023-08-01T09:35:05;21.60;1.00
20284;DHT22;10301;50.832;4.080;2023-08-01T09:37:41;21.20;1.00
20284;DHT22;10301;50.832;4.080;2023-08-01T09:40:08;21.50;1.00
20284;DHT22;10301;50.832;4.080;2023-08-01T09:42:39;21.50;1.00
20284;DHT22;10301;50.832;4.080;2023-08-01T09:45:13;21.10;1.00
20284;DHT22;10301;50.832;4.080;2023-08-01T09:47:40;21.00;1.00
20284;DHT22;10301;50.832;4.080;2023-08-01T09:50:06;21.00;1.00
20284;DHT22;10301;50.832;4.080;2023-08-01T09:52:33;21.20;1.00
20284;DHT22;10301;50.832;4.080;2023-08-01T09:54:58;21.70;1.00
20284;DHT22;10301;50.832;4.080;2023-08-01T09:57:29;22.10;1.00
20284;DHT22;10301;50.832;4.080;2023-08-01T09:59:56;22.60;1.00
20284;DHT22;10301;50.832;4.080;2023-08-01T10:02:24;22.80;99.90
20284;DHT22;10301;50.832;4.080;2023-08-01T10:04:52;22.50;1.00
20284;DHT22;10301;50.832;4.080;2023-08-01T10:07:23;22.60;1.00
20284;DHT22;10301;50.832;4.080;2023-08-01T10:09:49;22.70;1.00
20284;DHT22;10301;50.832;4.080;2023-08-01T10:12:17;22.80;99.90
20284;DHT22;10301;50.832;4.080;2023-08-01T10:14:43;22.90;99.90
20284;DHT22;10301;50.832;4.080;2023-08-01T10:17:10;22.70;1.00
20284;DHT22;10301;50.832;4.080;2023-08-01T10:19:37;22.90;99.90
20284;DHT22;10301;50.832;4.080;2023-08-01T10:22:04;23.30;25.80
20284;DHT22;10301;50.832;4.080;2023-08-01T10:24:32;23.30;1.00
20284;DHT22;10301;50.832;4.080;2023-08-01T10:27:08;23.30;1.00
20284;DHT22;10301;50.832;4.080;2023-08-01T10:29:36;23.20;1.00
20284;DHT22;10301;50.832;4.080;2023-08-01T10:32:02;23.30;99.90
20284;DHT22;10301;50.832;4.080;2023-08-01T10:34:28;23.80;1.00
20284;DHT22;10301;50.832;4.080;2023-08-01T10:36:55;24.00;1.00
20284;DHT22;10301;50.832;4.080;2023-08-01T10:39:22;23.60;1.00
20284;DHT22;10301;50.832;4.080;2023-08-01T10:42:03;24.00;1.00
20284;DHT22;10301;50.832;4.080;2023-08-01T10:44:30;24.50;1.00
20284;DHT22;10301;50.832;4.080;2023-08-01T10:47:04;24.30;1.00
20284;DHT22;10301;50.832;4.080;2023-08-01T10:49:40;24.40;99.90
20284;DHT22;10301;50.832;4.080;2023-08-01T10:52:26;24.30;1.00
20284;DHT22;10301;50.832;4.080;2023-08-01T10:55:02;24.10;1.00
20284;DHT22;10301;50.832;4.080;2023-08-01T10:57:30;24.00;1.00
20284;DHT22;10301;50.832;4.080;2023-08-01T10:59:57;23.80;99.90
20284;DHT22;10301;50.832;4.080;2023-08-01T11:02:27;24.00;99.90
20284;DHT22;10301;50.832;4.080;2023-08-01T11:05:04;24.30;99.90
20284;DHT22;10301;50.832;4.080;2023-08-01T11:07:30;24.10;95.20
20284;DHT22;10301;50.832;4.080;2023-08-01T11:10:23;23.90;99.90
20284;DHT22;10301;50.832;4.080;2023-08-01T11:12:49;23.40;1.00
20284;DHT22;10301;50.832;4.080;2023-08-01T11:15:15;23.00;99.90
20284;DHT22;10301;50.832;4.080;2023-08-01T11:17:42;23.10;99.90
20284;DHT22;10301;50.832;4.080;2023-08-01T11:20:10;22.90;99.90
20284;DHT22;10301;50.832;4.080;2023-08-01T11:22:37;22.70;87.00
20284;DHT22;10301;50.832;4.080;2023-08-01T11:25:03;22.80;1.00
20284;DHT22;10301;50.832;4.080;2023-08-01T11:27:29;22.80;1.00
20284;DHT22;10301;50.832;4.080;2023-08-01T11:29:56;23.20;1.00
20284;DHT22;10301;50.832;4.080;2023-08-01T11:32:23;23.30;99.90
20284;DHT22;10301;50.832;4.080;2023-08-01T11:34:58;23.20;1.00
20284;DHT22;10301;50.832;4.080;2023-08-01T11:37:26;23.10;1.00
20284;DHT22;10301;50.832;4.080;2023-08-01T11:39:52;23.30;1.00
20284;DHT22;10301;50.832;4.080;2023-08-01T11:42:17;23.30;99.90
20284;DHT22;10301;50.832;4.080;2023-08-01T11:44:44;23.10;1.00
20284;DHT22;10301;50.832;4.080;2023-08-01T11:47:17;23.30;1.00
20284;DHT22;10301;50.832;4.080;2023-08-01T11:49:47;23.20;1.00
20284;DHT22;10301;50.832;4.080;2023-08-01T11:52:26;23.40;1.00
20284;DHT22;10301;50.832;4.080;2023-08-01T11:54:53;23.90;1.00
20284;DHT22;10301;50.832;4.080;2023-08-01T11:57:20;24.30;99.90
20284;DHT22;10301;50.832;4.080;2023-08-01T11:59:51;24.00;23.00
20284;DHT22;10301;50.832;4.080;2023-08-01T12:02:29;24.00;1.00
20284;DHT22;10301;50.832;4.080;2023-08-01T12:04:55;23.60;99.90
20284;DHT22;10301;50.832;4.080;2023-08-01T12:07:24;24.00;99.90
20284;DHT22;10301;50.832;4.080;2023-08-01T12:10:00;24.20;99.90
20284;DHT22;10301;50.832;4.080;2023-08-01T12:12:27;24.40;99.90
20284;DHT22;10301;50.832;4.080;2023-08-01T12:14:53;24.20;1.00
20284;DHT22;10301;50.832;4.080;2023-08-01T12:17:20;24.30;99.90
20284;DHT22;10301;50.832;4.080;2023-08-01T12:19:46;23.90;1.00
20284;DHT22;10301;50.832;4.080;2023-08-01T12:22:12;23.60;1.00
20284;DHT22;10301;50.832;4.080;2023-08-01T12:24:38;23.60;1.00
20284;DHT22;10301;50.832;4.080;2023-08-01T12:27:07;23.10;1.00
20284;DHT22;10301;50.832;4.080;2023-08-01T12:29:34;22.80;1.00
20284;DHT22;10301;50.832;4.080;2023-08-01T12:31:59;22.50;99.90
20284;DHT22;10301;50.832;4.080;2023-08-01T12:34:25;22.20;1.00
20284;DHT22;10301;50.832;4.080;2023-08-01T12:36:51;21.80;1.00
20284;DHT22;10301;50.832;4.080;2023-08-01T12:39:16;21.30;1.00
20284;DHT22;10301;50.832;4.080;2023-08-01T12:41:42;21.20;1.00
20284;DHT22;10301;50.832;4.080;2023-08-01T12:44:07;21.30;1.00
20284;DHT22;10301;50.832;4.080;2023-08-01T12:46:33;21.60;1.00
20284;DHT22;10301;50.832;4.080;2023-08-01T12:48:59;21.90;1.00
20284;DHT22;10301;50.832;4.080;2023-08-01T12:51:25;22.30;1.00
20284;DHT22;10301;50.832;4.080;2023-08-01T12:53:50;22.70;1.00
20284;DHT22;10301;50.832;4.080;2023-08-01T12:56:16;22.90;99.90
20284;DHT22;10301;50.832;4.080;2023-08-01T12:58:41;22.90;99.90
20284;DHT22;10301;50.832;4.080;2023-08-01T13:01:07;23.00;99.90
20284;DHT22;10301;50.832;4.080;2023-08-01T13:03:33;23.10;99.90
20284;DHT22;10301;50.832;4.080;2023-08-01T13:05:59;23.10;1.00
20284;DHT22;10301;50.832;4.080;2023-08-01T13:08:24;22.60;1.00
20284;DHT22;10301;50.832;4.080;2023-08-01T13:10:50;22.40;99.90
20284;DHT22;10301;50.832;4.080;2023-08-01T13:13:16;22.40;1.00
20284;DHT22;10301;50.832;4.080;2023-08-01T13:15:42;22.60;99.90
20284;DHT22;10301;50.832;4.080;2023-08-01T13:18:09;22.80;1.00
20284;DHT22;10301;50.832;4.080;2023-08-01T13:20:34;23.00;99.90
20284;DHT22;10301;50.832;4.080;2023-08-01T13:23:01;23.10;99.90
20284;DHT22;10301;50.832;4.080;2023-08-01T13:25:27;22.80;99.90
20284;DHT22;10301;50.832;4.080;2023-08-01T13:27:53;22.90;99.90
20284;DHT22;10301;50.832;4.080;2023-08-01T13:30:19;22.80;1.00
20284;DHT22;10301;50.832;4.080;2023-08-01T13:32:45;23.20;1.00
20284;DHT22;10301;50.832;4.080;2023-08-01T13:35:11;23.00;1.00
20284;DHT22;10301;50.832;4.080;2023-08-01T13:37:37;22.60;1.00
20284;DHT22;10301;50.832;4.080;2023-08-01T13:40:03;22.80;99.90
20284;DHT22;10301;50.832;4.080;2023-08-01T13:42:29;23.40;99.90
20284;DHT22;10301;50.832;4.080;2023-08-01T13:44:55;23.30;56.00
20284;DHT22;10301;50.832;4.080;2023-08-01T13:47:21;23.10;1.00
20284;DHT22;10301;50.832;4.080;2023-08-01T13:49:47;22.80;1.00
20284;DHT22;10301;50.832;4.080;2023-08-01T13:52:13;22.50;1.00
20284;DHT22;10301;50.832;4.080;2023-08-01T13:54:38;22.40;1.00
20284;DHT22;10301;50.832;4.080;2023-08-01T13:57:05;22.40;99.90
20284;DHT22;10301;50.832;4.080;2023-08-01T13:59:31;22.20;99.90
20284;DHT22;10301;50.832;4.080;2023-08-01T14:01:56;22.30;1.00
20284;DHT22;10301;50.832;4.080;2023-08-01T14:04:22;22.30;1.00
20284;DHT22;10301;50.832;4.080;2023-08-01T14:06:48;22.20;99.90
20284;DHT22;10301;50.832;4.080;2023-08-01T14:09:14;21.80;99.90
20284;DHT22;10301;50.832;4.080;2023-08-01T14:11:40;21.50;1.00
20284;DHT22;10301;50.832;4.080;2023-08-01T14:14:06;21.50;1.00
20284;DHT22;10301;50.832;4.080;2023-08-01T14:16:32;21.50;1.00
20284;DHT22;10301;50.832;4.080;2023-08-01T14:18:58;21.70;99.90
20284;DHT22;10301;50.832;4.080;2023-08-01T14:21:24;22.00;1.00
20284;DHT22;10301;50.832;4.080;2023-08-01T14:23:50;22.50;1.00
20284;DHT22;10301;50.832;4.080;2023-08-01T14:26:15;22.60;1.00
20284;DHT22;10301;50.832;4.080;2023-08-01T14:28:41;22.70;99.90
20284;DHT22;10301;50.832;4.080;2023-08-01T14:31:07;22.20;99.90
20284;DHT22;10301;50.832;4.080;2023-08-01T14:33:33;22.30;1.00
20284;DHT22;10301;50.832;4.080;2023-08-01T14:35:59;22.10;99.90
20284;DHT22;10301;50.832;4.080;2023-08-01T14:38:25;21.90;64.10
20284;DHT22;10301;50.832;4.080;2023-08-01T14:40:52;21.70;1.00
20284;DHT22;10301;50.832;4.080;2023-08-01T14:43:18;21.70;1.00
20284;DHT22;10301;50.832;4.080;2023-08-01T14:45:44;21.30;1.00
20284;DHT22;10301;50.832;4.080;2023-08-01T14:48:09;21.40;1.00
20284;DHT22;10301;50.832;4.080;2023-08-01T14:50:35;21.30;1.00
20284;DHT22;10301;50.832;4.080;2023-08-01T14:53:02;21.40;1.00
20284;DHT22;10301;50.832;4.080;2023-08-01T14:55:29;21.20;1.00
20284;DHT22;10301;50.832;4.080;2023-08-01T14:57:54;21.10;1.00
20284;DHT22;10301;50.832;4.080;2023-08-01T15:00:20;21.10;1.00
20284;DHT22;10301;50.832;4.080;2023-08-01T15:02:46;21.20;1.00
20284;DHT22;10301;50.832;4.080;2023-08-01T15:05:13;21.60;1.00
20284;DHT22;10301;50.832;4.080;2023-08-01T15:07:39;21.70;1.00
20284;DHT22;10301;50.832;4.080;2023-08-01T15:10:04;21.80;1.00
20284;DHT22;10301;50.832;4.080;2023-08-01T15:12:30;21.70;1.00
20284;DHT22;10301;50.832;4.080;2023-08-01T15:14:56;21.70;1.00
20284;DHT22;10301;50.832;4.080;2023-08-01T15:17:22;21.80;1.00
20284;DHT22;10301;50.832;4.080;2023-08-01T15:19:48;21.90;1.00
20284;DHT22;10301;50.832;4.080;2023-08-01T15:22:18;22.00;1.00
20284;DHT22;10301;50.832;4.080;2023-08-01T15:24:44;22.10;1.00
20284;DHT22;10301;50.832;4.080;2023-08-01T15:27:11;22.10;1.00
20284;DHT22;10301;50.832;4.080;2023-08-01T15:29:37;22.10;1.00
20284;DHT22;10301;50.832;4.080;2023-08-01T15:32:03;22.20;1.00